createdAt,value
2017-09-25T00:01:34.860Z,13.68
2017-09-25T00:04:01.117Z,13.63
2017-09-25T00:06:27.321Z,13.51
2017-09-25T00:08:53.545Z,13.47
2017-09-25T00:11:19.794Z,13.37
2017-09-25T00:13:46.010Z,13.34
2017-09-25T00:16:12.237Z,13.30
2017-09-25T00:18:38.490Z,13.27
2017-09-25T00:21:04.707Z,13.32
2017-09-25T00:23:30.939Z,13.44
2017-09-25T00:25:57.151Z,13.51
2017-09-25T00:28:23.355Z,13.54
2017-09-25T00:30:49.624Z,13.15
2017-09-25T00:33:15.860Z,13.00
2017-09-25T00:35:42.081Z,13.04
2017-09-25T00:38:08.257Z,13.04
2017-09-25T00:40:34.440Z,13.01
2017-09-25T00:43:00.674Z,13.09
2017-09-25T00:45:26.890Z,13.17
2017-09-25T00:47:53.131Z,13.23
2017-09-25T00:50:19.356Z,13.28
2017-09-25T00:52:45.606Z,13.30
2017-09-25T00:55:11.810Z,13.29
2017-09-25T00:57:38.058Z,13.37
2017-09-25T01:00:04.298Z,13.40
2017-09-25T01:02:30.513Z,13.46
2017-09-25T01:04:56.744Z,13.54
2017-09-25T01:07:22.973Z,13.46
2017-09-25T01:09:49.210Z,13.42
2017-09-25T01:12:15.420Z,13.42
2017-09-25T01:14:41.662Z,13.51
2017-09-25T01:17:07.880Z,13.39
2017-09-25T01:19:34.121Z,13.20
2017-09-25T01:22:00.357Z,13.20
2017-09-25T01:24:26.572Z,13.24
2017-09-25T01:26:52.804Z,13.20
2017-09-25T01:29:19.020Z,13.12
2017-09-25T01:31:45.267Z,13.18
2017-09-25T01:34:11.496Z,13.24
2017-09-25T01:36:37.720Z,13.32
2017-09-25T01:39:03.955Z,13.36
2017-09-25T01:41:30.191Z,13.36
2017-09-25T01:43:56.406Z,13.34
2017-09-25T01:46:22.656Z,13.33
2017-09-25T01:48:48.867Z,13.26
2017-09-25T01:51:15.035Z,13.31
2017-09-25T01:53:41.226Z,13.38
2017-09-25T01:56:07.477Z,13.42
2017-09-25T01:58:33.693Z,13.43
2017-09-25T02:00:59.927Z,13.30
2017-09-25T02:03:26.166Z,13.29
2017-09-25T02:05:52.387Z,13.35
2017-09-25T02:08:18.601Z,13.60
2017-09-25T02:10:44.828Z,13.67
2017-09-25T02:13:11.090Z,13.58
2017-09-25T02:15:37.304Z,13.42
2017-09-25T02:18:03.538Z,13.34
2017-09-25T02:20:29.759Z,13.28
2017-09-25T02:22:55.994Z,13.32
2017-09-25T02:25:22.240Z,13.39
2017-09-25T02:27:48.455Z,13.44
2017-09-25T02:30:14.671Z,13.48
2017-09-25T02:32:40.904Z,13.36
2017-09-25T02:35:07.070Z,13.33
2017-09-25T02:37:33.263Z,13.30
2017-09-25T02:39:59.482Z,13.16
2017-09-25T02:42:25.709Z,13.06
2017-09-25T02:44:51.949Z,13.08
2017-09-25T02:47:18.187Z,13.04
2017-09-25T02:49:44.403Z,13.06
2017-09-25T02:52:10.658Z,13.21
2017-09-25T02:54:36.872Z,13.33
2017-09-25T02:57:03.107Z,13.42
2017-09-25T02:59:29.326Z,13.26
2017-09-25T03:01:55.569Z,13.39
2017-09-25T03:04:21.784Z,13.43
2017-09-25T03:06:48.015Z,13.54
2017-09-25T03:09:14.255Z,13.52
2017-09-25T03:11:40.464Z,13.62
2017-09-25T03:14:06.718Z,13.71
2017-09-25T03:16:32.936Z,13.77
2017-09-25T03:18:59.191Z,13.76
2017-09-25T03:21:25.406Z,13.76
2017-09-25T03:23:51.630Z,13.75
2017-09-25T03:26:17.857Z,13.51
2017-09-25T03:28:44.095Z,13.42
2017-09-25T03:31:10.296Z,13.30
2017-09-25T03:33:36.541Z,13.33
2017-09-25T03:36:02.768Z,13.38
2017-09-25T03:38:29.006Z,13.54
2017-09-25T03:40:55.250Z,13.64
2017-09-25T03:43:21.459Z,13.81
2017-09-25T03:45:47.702Z,13.91
2017-09-25T03:48:13.924Z,13.92
2017-09-25T03:50:40.158Z,13.97
2017-09-25T03:53:06.340Z,13.95
2017-09-25T03:55:32.608Z,13.96
2017-09-25T03:57:58.823Z,13.72
2017-09-25T04:00:25.084Z,13.38
2017-09-25T04:02:51.289Z,13.13
2017-09-25T04:05:17.529Z,13.09
2017-09-25T04:07:43.757Z,13.02
2017-09-25T04:10:09.986Z,12.86
2017-09-25T04:12:36.232Z,12.82
2017-09-25T04:15:02.447Z,12.86
2017-09-25T04:17:28.688Z,12.86
2017-09-25T04:19:54.909Z,12.69
2017-09-25T04:22:21.149Z,12.76
2017-09-25T04:24:47.352Z,12.77
2017-09-25T04:27:13.600Z,12.85
2017-09-25T04:29:39.823Z,12.91
2017-09-25T04:32:06.064Z,12.96
2017-09-25T04:34:32.292Z,12.89
2017-09-25T04:36:58.526Z,12.89
2017-09-25T04:39:24.741Z,12.93
2017-09-25T04:41:50.981Z,12.99
2017-09-25T04:44:17.189Z,13.05
2017-09-25T04:46:43.426Z,13.13
2017-09-25T04:49:09.666Z,13.27
2017-09-25T04:51:35.901Z,13.38
2017-09-25T04:54:02.134Z,13.46
2017-09-25T04:56:28.369Z,13.71
2017-09-25T04:58:54.596Z,13.81
2017-09-25T05:01:20.811Z,13.98
2017-09-25T05:03:46.991Z,14.16
2017-09-25T05:06:13.279Z,14.19
2017-09-25T05:08:39.868Z,14.39
2017-09-25T05:11:06.146Z,14.51
2017-09-25T05:13:32.367Z,14.67
2017-09-25T05:15:58.600Z,14.90
2017-09-25T05:18:24.826Z,15.05
2017-09-25T05:20:51.069Z,15.22
2017-09-25T05:23:17.305Z,15.31
2017-09-25T05:25:43.523Z,15.06
2017-09-25T05:28:09.766Z,15.12
2017-09-25T05:30:35.978Z,14.93
2017-09-25T05:33:02.221Z,14.81
2017-09-25T05:35:28.442Z,14.64
2017-09-25T05:37:54.654Z,14.58
2017-09-25T05:40:20.901Z,14.58
2017-09-25T05:42:47.151Z,14.69
2017-09-25T05:45:14.402Z,14.92
2017-09-25T05:47:40.557Z,15.10
2017-09-25T05:50:06.745Z,15.14
2017-09-25T05:52:32.980Z,15.20
2017-09-25T05:54:59.202Z,15.13
2017-09-25T05:57:25.366Z,15.34
2017-09-25T05:59:51.578Z,15.54
2017-09-25T06:02:17.751Z,15.72
2017-09-25T06:04:44.017Z,15.66
2017-09-25T06:07:10.243Z,15.67
2017-09-25T06:09:36.472Z,15.73
2017-09-25T06:12:02.729Z,16.03
2017-09-25T06:14:28.940Z,16.23
2017-09-25T06:16:55.161Z,16.42
2017-09-25T06:19:21.397Z,16.44
2017-09-25T06:21:47.630Z,16.13
2017-09-25T06:24:13.858Z,16.13
2017-09-25T06:26:40.073Z,16.31
2017-09-25T06:29:06.338Z,16.48
2017-09-25T06:31:32.546Z,16.62
2017-09-25T06:33:58.768Z,16.86
2017-09-25T06:36:24.996Z,17.07
2017-09-25T06:38:51.239Z,17.25
2017-09-25T06:41:17.457Z,17.52
2017-09-25T06:43:43.692Z,17.77
2017-09-25T06:52:53.384Z,17.85
2017-09-25T06:55:19.622Z,18.07
2017-09-25T06:57:45.901Z,18.10
2017-09-25T07:00:12.087Z,18.19
2017-09-25T07:02:38.354Z,18.33
2017-09-25T07:05:04.658Z,18.56
2017-09-25T07:07:30.868Z,18.98
2017-09-25T07:09:57.085Z,19.18
2017-09-25T07:12:23.331Z,18.77
2017-09-25T07:14:49.555Z,18.85
2017-09-25T07:17:15.775Z,18.64
2017-09-25T07:19:41.922Z,18.34
2017-09-25T07:22:08.108Z,18.34
2017-09-25T07:24:34.312Z,18.37
2017-09-25T07:27:00.489Z,18.37
2017-09-25T07:29:26.654Z,18.87
2017-09-25T07:31:52.818Z,19.28
2017-09-25T07:34:18.992Z,19.72
2017-09-25T07:36:45.156Z,20.37
2017-09-25T07:39:11.346Z,20.67
2017-09-25T07:41:37.517Z,21.23
2017-09-25T07:44:03.687Z,21.35
2017-09-25T07:46:29.865Z,21.43
2017-09-25T07:48:56.054Z,21.40
2017-09-25T07:51:22.236Z,21.82
2017-09-25T07:53:48.417Z,22.58
2017-09-25T07:56:14.611Z,23.21
2017-09-25T07:58:40.784Z,23.67
2017-09-25T08:01:06.989Z,24.05
2017-09-25T08:03:33.190Z,24.42
2017-09-25T08:05:59.350Z,24.28
2017-09-25T08:08:25.544Z,24.54
2017-09-25T08:10:51.709Z,24.43
2017-09-25T08:13:17.878Z,24.91
2017-09-25T08:15:44.070Z,24.83
2017-09-25T08:18:10.271Z,24.79
2017-09-25T08:20:36.476Z,25.03
2017-09-25T08:23:02.651Z,25.10
2017-09-25T08:25:28.822Z,25.31
2017-09-25T08:27:55.004Z,25.51
2017-09-25T08:30:21.168Z,25.93
2017-09-25T08:32:47.332Z,25.46
2017-09-25T08:35:13.529Z,25.56
2017-09-25T08:37:39.686Z,25.36
2017-09-25T08:40:05.874Z,25.34
2017-09-25T08:42:32.041Z,25.19
2017-09-25T08:44:58.316Z,25.76
2017-09-25T08:47:24.535Z,25.97
2017-09-25T08:49:50.785Z,25.77
2017-09-25T08:52:17.023Z,25.85
2017-09-25T08:54:43.256Z,25.85
2017-09-25T08:57:09.422Z,25.62
2017-09-25T08:59:35.700Z,25.92
2017-09-25T09:02:01.880Z,26.79
2017-09-25T09:04:28.170Z,27.44
2017-09-25T09:06:54.378Z,27.54
2017-09-25T09:09:20.696Z,27.53
2017-09-25T09:11:46.963Z,27.60
2017-09-25T09:14:13.208Z,27.43
2017-09-25T09:16:39.437Z,27.53
2017-09-25T09:19:05.610Z,27.92
2017-09-25T09:21:31.893Z,27.84
2017-09-25T09:23:58.115Z,28.23
2017-09-25T09:26:24.344Z,28.36
2017-09-25T09:28:50.568Z,28.07
2017-09-25T09:31:16.903Z,28.10
2017-09-25T09:33:43.149Z,28.12
2017-09-25T09:36:09.574Z,28.19
2017-09-25T09:38:35.793Z,27.74
2017-09-25T09:41:02.035Z,28.06
2017-09-25T09:43:28.297Z,27.99
2017-09-25T09:45:54.594Z,27.84
2017-09-25T09:48:20.800Z,27.18
2017-09-25T09:50:47.046Z,27.05
2017-09-25T09:53:13.258Z,26.73
2017-09-25T09:55:39.539Z,26.41
2017-09-25T09:58:05.763Z,26.91
2017-09-25T10:00:32.110Z,26.55
2017-09-25T10:02:58.398Z,26.75
2017-09-25T10:05:24.620Z,26.21
2017-09-25T10:07:50.797Z,26.25
2017-09-25T10:10:17.083Z,27.12
2017-09-25T10:12:43.386Z,27.44
2017-09-25T10:15:09.675Z,27.06
2017-09-25T10:17:35.971Z,26.56
2017-09-25T10:20:02.255Z,26.55
2017-09-25T10:22:28.559Z,27.57
2017-09-25T10:24:54.840Z,28.02
2017-09-25T10:27:21.038Z,28.59
2017-09-25T10:29:47.230Z,29.12
2017-09-25T10:32:13.479Z,30.05
2017-09-25T10:34:39.683Z,29.84
2017-09-25T10:37:05.928Z,29.32
2017-09-25T10:39:32.221Z,29.32
2017-09-25T10:41:58.516Z,29.19
2017-09-25T10:44:24.834Z,29.39
2017-09-25T10:46:51.027Z,29.41
2017-09-25T10:49:17.272Z,29.27
2017-09-25T10:51:43.490Z,29.87
2017-09-25T10:54:09.720Z,30.16
2017-09-25T10:56:35.952Z,29.96
2017-09-25T10:59:02.173Z,30.05
2017-09-25T11:01:28.409Z,30.29
2017-09-25T11:03:54.626Z,30.02
2017-09-25T11:06:20.890Z,30.12
2017-09-25T11:08:47.105Z,29.63
2017-09-25T11:11:13.341Z,29.21
2017-09-25T11:13:39.588Z,29.38
2017-09-25T11:16:05.773Z,28.69
2017-09-25T11:18:32.011Z,27.88
2017-09-25T11:20:58.221Z,27.42
2017-09-25T11:23:24.476Z,27.37
2017-09-25T11:25:50.681Z,28.31
2017-09-25T11:28:16.931Z,28.19
2017-09-25T11:30:43.169Z,28.47
2017-09-25T11:33:09.394Z,29.47
2017-09-25T11:35:35.631Z,29.58
2017-09-25T11:38:01.850Z,30.11
2017-09-25T11:40:28.076Z,30.04
2017-09-25T11:42:54.304Z,29.79
2017-09-25T11:45:20.515Z,30.18
2017-09-25T11:47:46.786Z,30.53
2017-09-25T11:50:12.955Z,30.42
2017-09-25T11:52:39.215Z,29.53
2017-09-25T11:55:05.469Z,30.20
2017-09-25T11:57:31.688Z,30.30
2017-09-25T11:59:58.841Z,29.37
2017-09-25T12:02:25.066Z,29.16
2017-09-25T12:04:51.286Z,29.17
2017-09-25T12:07:17.533Z,29.35
2017-09-25T12:09:43.756Z,28.95
2017-09-25T12:12:09.982Z,29.32
2017-09-25T12:14:36.207Z,29.33
2017-09-25T12:17:02.448Z,29.71
2017-09-25T12:19:28.667Z,29.17
2017-09-25T12:21:54.899Z,28.75
2017-09-25T12:24:21.148Z,28.47
2017-09-25T12:26:47.371Z,27.67
2017-09-25T12:29:13.585Z,27.77
2017-09-25T12:31:39.838Z,27.53
2017-09-25T12:34:06.055Z,27.63
2017-09-25T12:36:32.235Z,27.57
2017-09-25T12:38:58.521Z,28.14
2017-09-25T12:41:24.739Z,28.15
2017-09-25T12:43:50.980Z,28.27
2017-09-25T12:46:17.208Z,28.35
2017-09-25T12:48:43.426Z,28.53
2017-09-25T12:51:09.700Z,29.04
2017-09-25T12:53:35.874Z,29.65
2017-09-25T12:56:02.106Z,28.81
2017-09-25T12:58:28.344Z,28.87
2017-09-25T13:00:54.573Z,28.86
2017-09-25T13:03:20.796Z,28.35
2017-09-25T13:05:47.036Z,28.17
2017-09-25T13:08:13.266Z,28.30
2017-09-25T13:10:39.452Z,28.27
2017-09-25T13:13:05.609Z,28.86
2017-09-25T13:15:31.759Z,29.53
2017-09-25T13:17:57.927Z,28.93
2017-09-25T13:20:24.098Z,27.59
2017-09-25T13:22:50.272Z,27.98
2017-09-25T13:25:16.450Z,28.31
2017-09-25T13:27:42.611Z,28.67
2017-09-25T13:30:08.796Z,28.00
2017-09-25T13:32:34.951Z,27.52
2017-09-25T13:35:01.110Z,27.16
2017-09-25T13:37:27.267Z,26.58
2017-09-25T13:39:53.451Z,26.22
2017-09-25T13:42:19.615Z,26.36
2017-09-25T13:44:45.814Z,27.29
2017-09-25T13:47:11.989Z,27.51
2017-09-25T13:49:38.156Z,27.42
2017-09-25T13:52:04.317Z,27.46
2017-09-25T13:54:30.536Z,27.34
2017-09-25T13:56:56.732Z,27.11
2017-09-25T14:04:25.836Z,26.94
2017-09-25T14:06:51.997Z,26.90
2017-09-25T14:09:18.158Z,26.86
2017-09-25T14:11:44.315Z,26.49
2017-09-25T14:14:10.471Z,26.22
2017-09-25T14:16:36.649Z,26.17
2017-09-25T14:19:02.829Z,26.21
2017-09-25T14:21:28.999Z,26.24
2017-09-25T14:23:55.163Z,26.27
2017-09-25T14:26:21.425Z,26.05
2017-09-25T14:28:47.655Z,26.24
2017-09-25T14:31:13.881Z,26.31
2017-09-25T14:33:40.138Z,26.01
2017-09-25T14:36:06.428Z,25.85
2017-09-25T14:38:32.709Z,25.54
2017-09-25T14:40:59.015Z,25.42
2017-09-25T14:43:25.289Z,25.21
2017-09-25T14:45:51.594Z,25.04
2017-09-25T14:48:17.798Z,24.93
2017-09-25T14:50:44.038Z,24.83
2017-09-25T14:53:10.259Z,24.74
2017-09-25T14:55:36.522Z,24.62
2017-09-25T14:58:02.740Z,24.53
2017-09-25T15:00:28.955Z,24.52
2017-09-25T15:02:55.182Z,24.50
2017-09-25T15:05:21.412Z,24.43
2017-09-25T15:07:47.666Z,24.09
2017-09-25T15:10:13.912Z,24.11
2017-09-25T15:12:40.092Z,24.11
2017-09-25T15:15:06.334Z,24.00
2017-09-25T15:17:32.562Z,24.02
2017-09-25T15:19:58.786Z,23.78
2017-09-25T15:22:25.011Z,23.83
2017-09-25T15:24:51.325Z,23.85
2017-09-25T15:27:17.561Z,23.56
2017-09-25T15:29:43.802Z,23.57
2017-09-25T15:32:10.051Z,23.60
2017-09-25T15:34:36.237Z,23.56
2017-09-25T15:37:02.543Z,23.53
2017-09-25T15:39:28.747Z,23.43
2017-09-25T15:41:55.001Z,23.38
2017-09-25T15:44:21.229Z,23.34
2017-09-25T15:46:47.440Z,23.24
2017-09-25T15:49:13.652Z,23.20
2017-09-25T15:51:39.901Z,23.17
2017-09-25T15:54:06.101Z,23.07
2017-09-25T15:56:32.398Z,23.02
2017-09-25T15:58:58.612Z,22.95
2017-09-25T16:01:24.809Z,22.84
2017-09-25T16:03:51.051Z,22.72
2017-09-25T16:06:17.257Z,22.69
2017-09-25T16:08:43.466Z,22.63
2017-09-25T16:11:09.723Z,22.52
2017-09-25T16:13:35.986Z,22.43
2017-09-25T16:16:02.183Z,22.36
2017-09-25T16:18:28.445Z,22.27
2017-09-25T16:20:54.674Z,22.06
2017-09-25T16:23:20.966Z,22.08
2017-09-25T16:25:47.302Z,22.00
2017-09-25T16:28:13.577Z,21.89
2017-09-25T16:30:39.870Z,22.00
2017-09-25T16:33:06.134Z,21.96
2017-09-25T16:35:32.350Z,21.88
2017-09-25T16:37:58.586Z,21.78
2017-09-25T16:40:24.789Z,21.70
2017-09-25T16:42:51.062Z,21.66
2017-09-25T16:45:17.273Z,21.56
2017-09-25T16:47:43.540Z,21.57
2017-09-25T16:50:09.837Z,21.61
2017-09-25T16:52:36.059Z,21.49
2017-09-25T17:01:46.145Z,21.18
2017-09-25T17:04:12.376Z,21.22
2017-09-25T17:06:38.700Z,21.14
2017-09-25T17:09:05.723Z,21.28
2017-09-25T17:11:32.026Z,21.26
2017-09-25T17:14:00.231Z,21.31
2017-09-25T17:16:26.490Z,21.38
2017-09-25T17:18:52.818Z,21.31
2017-09-25T17:21:19.034Z,21.28
2017-09-25T17:23:45.279Z,21.32
2017-09-25T17:26:11.487Z,21.32
2017-09-25T17:28:37.731Z,21.25
2017-09-25T17:31:03.957Z,21.27
2017-09-25T17:33:30.192Z,21.30
2017-09-25T17:35:56.440Z,21.31
2017-09-25T17:38:22.633Z,21.30
2017-09-25T17:40:48.873Z,21.34
2017-09-25T17:43:15.086Z,21.31
2017-09-25T17:45:41.337Z,21.28
2017-09-25T17:48:07.555Z,21.29
2017-09-25T17:50:33.787Z,21.31
2017-09-25T17:53:00.033Z,21.29
2017-09-25T17:55:26.243Z,21.08
2017-09-25T17:57:52.485Z,21.11
2017-09-25T18:00:18.691Z,21.12
2017-09-25T18:02:44.931Z,21.03
2017-09-25T18:05:11.184Z,20.90
2017-09-25T18:07:37.405Z,20.85
2017-09-25T18:10:03.632Z,20.78
2017-09-25T18:12:29.855Z,20.79
2017-09-25T18:14:56.094Z,20.73
2017-09-25T18:17:22.326Z,20.74
2017-09-25T18:19:48.564Z,20.60
2017-09-25T18:22:14.788Z,20.56
2017-09-25T18:24:40.975Z,20.60
2017-09-25T18:27:07.238Z,20.58
2017-09-25T18:29:33.482Z,20.53
2017-09-25T18:31:59.699Z,20.44
2017-09-25T18:34:25.923Z,20.49
2017-09-25T18:36:52.084Z,20.40
2017-09-25T18:39:18.285Z,20.43
2017-09-25T18:41:44.495Z,20.44
2017-09-25T18:44:10.753Z,20.42
2017-09-25T18:46:36.959Z,20.45
2017-09-25T18:49:03.122Z,20.53
2017-09-25T18:51:29.342Z,20.51
2017-09-25T18:53:55.609Z,20.44
2017-09-25T18:56:21.880Z,20.42
2017-09-25T18:58:48.028Z,20.41
2017-09-25T19:01:14.234Z,20.26
2017-09-25T19:03:40.468Z,20.15
2017-09-25T19:06:06.732Z,20.09
2017-09-25T19:08:32.949Z,19.97
2017-09-25T19:10:59.180Z,19.94
2017-09-25T19:13:25.396Z,19.95
2017-09-25T19:15:51.623Z,19.92
2017-09-25T19:18:17.898Z,19.83
2017-09-25T19:20:44.112Z,19.88
2017-09-25T19:23:10.282Z,19.70
2017-09-25T19:25:36.555Z,19.70
2017-09-25T19:28:02.784Z,19.68
2017-09-25T19:30:29.008Z,19.58
2017-09-25T19:32:55.245Z,19.60
2017-09-25T19:35:21.479Z,19.55
2017-09-25T19:37:47.697Z,19.50
2017-09-25T19:40:13.927Z,19.60
2017-09-25T19:42:40.160Z,19.63
2017-09-25T19:45:06.354Z,19.68
2017-09-25T19:47:32.634Z,19.65
2017-09-25T19:49:58.895Z,19.71
2017-09-25T19:52:25.061Z,19.70
2017-09-25T19:54:51.293Z,19.70
2017-09-25T19:57:17.543Z,19.67
2017-09-25T19:59:43.774Z,19.67
2017-09-25T20:02:09.999Z,19.69
2017-09-25T20:04:36.232Z,19.71
2017-09-25T20:07:02.472Z,19.61
2017-09-25T20:09:28.636Z,19.64
2017-09-25T20:11:54.823Z,19.65
2017-09-25T20:14:20.986Z,19.54
2017-09-25T20:16:47.171Z,19.46
2017-09-25T20:19:15.349Z,19.57
2017-09-25T20:21:41.577Z,19.55
2017-09-25T20:24:07.792Z,19.52
2017-09-25T20:26:34.443Z,19.43
2017-09-25T20:29:00.682Z,19.40
2017-09-25T20:31:26.869Z,19.35
2017-09-25T20:33:53.120Z,19.31
2017-09-25T20:36:19.323Z,19.20
2017-09-25T20:38:45.582Z,19.22
2017-09-25T20:41:11.742Z,19.21
2017-09-25T20:43:37.930Z,19.30
2017-09-25T20:46:04.166Z,19.28
2017-09-25T20:48:30.325Z,18.96
2017-09-25T20:50:56.538Z,18.80
2017-09-25T20:53:22.776Z,18.76
2017-09-25T20:55:48.992Z,18.88
2017-09-25T20:58:15.224Z,18.95
2017-09-25T21:00:41.452Z,18.88
2017-09-25T21:03:07.681Z,18.81
2017-09-25T21:05:33.902Z,18.84
2017-09-25T21:08:00.127Z,18.83
2017-09-25T21:10:26.354Z,18.82
2017-09-25T21:12:52.598Z,18.85
2017-09-25T21:15:18.836Z,18.88
2017-09-25T21:17:45.053Z,18.94
2017-09-25T21:20:11.289Z,19.00
2017-09-25T21:22:37.499Z,19.07
2017-09-25T21:25:03.731Z,18.98
2017-09-25T21:27:29.971Z,18.96
2017-09-25T21:29:56.200Z,18.93
2017-09-25T21:32:22.444Z,18.96
2017-09-25T21:34:48.655Z,18.88
2017-09-25T21:37:14.892Z,18.80
2017-09-25T21:39:41.133Z,18.77
2017-09-25T21:42:07.355Z,18.65
2017-09-25T21:44:33.581Z,18.57
2017-09-25T21:46:59.804Z,18.56
2017-09-25T21:49:26.040Z,18.50
2017-09-25T21:51:52.278Z,18.46
2017-09-25T21:54:18.514Z,18.39
2017-09-25T21:56:44.737Z,18.35
2017-09-25T21:59:10.969Z,18.39
2017-09-25T22:01:37.189Z,18.31
2017-09-25T22:04:03.421Z,18.46
2017-09-25T22:06:29.661Z,18.52
2017-09-25T22:08:55.883Z,18.46
2017-09-25T22:11:22.121Z,18.49
2017-09-25T22:13:48.348Z,18.44
2017-09-25T22:16:14.567Z,18.41
2017-09-25T22:18:40.823Z,18.52
2017-09-25T22:21:07.047Z,18.46
2017-09-25T22:23:33.242Z,18.51
2017-09-25T22:25:59.483Z,18.50
2017-09-25T22:28:25.707Z,18.53
2017-09-25T22:30:51.952Z,18.67
2017-09-25T22:33:18.176Z,18.56
2017-09-25T22:35:44.422Z,18.20
2017-09-25T22:38:10.633Z,18.13
2017-09-25T22:40:36.873Z,17.95
2017-09-25T22:43:03.100Z,18.02
2017-09-25T22:45:29.320Z,17.98
2017-09-25T22:47:55.557Z,17.90
2017-09-25T22:50:21.792Z,17.93
2017-09-25T22:52:48.024Z,17.96
2017-09-25T22:55:14.257Z,18.03
2017-09-25T22:57:40.463Z,18.08
2017-09-25T23:00:06.699Z,18.14
2017-09-25T23:02:32.923Z,18.18
2017-09-25T23:04:59.157Z,18.19
2017-09-25T23:07:25.386Z,18.20
2017-09-25T23:09:51.560Z,18.20
2017-09-25T23:12:17.774Z,18.18
2017-09-25T23:14:43.982Z,18.12
2017-09-25T23:17:10.206Z,18.10
2017-09-25T23:19:36.431Z,18.07
2017-09-25T23:22:02.667Z,18.07
2017-09-25T23:24:28.897Z,18.03
2017-09-25T23:26:55.088Z,17.99
2017-09-25T23:29:21.247Z,18.01
2017-09-25T23:31:47.498Z,18.03
2017-09-25T23:34:13.695Z,18.00
2017-09-25T23:36:39.942Z,18.08
2017-09-25T23:39:06.197Z,18.14
2017-09-25T23:41:32.380Z,18.11
2017-09-25T23:43:58.616Z,18.02
2017-09-25T23:46:24.850Z,17.94
2017-09-25T23:48:51.092Z,18.02
2017-09-25T23:51:17.321Z,17.92
2017-09-25T23:53:43.556Z,17.86
2017-09-25T23:56:09.780Z,17.83
2017-09-25T23:58:36.004Z,17.75
